Time;durP1;ratioP1;P1;durP2;ratioP2;P2;SDS_P1;SDS_P2;PMS_P1;PMS_P2;Temp;Humidity;BMP_temperature;BMP_pressure;BME280_temperature;BME280_humidity;BME280_pressure;Samples;Min_cycle;Max_cycle;Signal;HPM_P1;HPM_P2
2021/12/14 00:00:44;;;;;;;20.63;15.30;;;;;;;7.03;98.61;102600.00;5094039;28;20028;-56
2021/12/14 00:03:12;;;;;;;21.35;14.93;;;;;;;6.99;98.55;102584.31;5094586;28;20527;-57
2021/12/14 00:05:39;;;;;;;;;;;;;;;7.08;98.06;102595.22;5094129;28;20035;-57
2021/12/14 00:08:06;;;;;;;19.90;14.88;;;;;;;6.99;98.61;102590.31;5094825;28;19912;-57
2021/12/14 00:13:17;;;;;;;19.42;14.80;;;;;;;6.96;98.91;102584.97;5093636;28;20413;-57
2021/12/14 00:15:43;;;;;;;19.15;14.45;;;;;;;6.95;99.20;102580.63;5094409;28;20031;-56
2021/12/14 00:18:12;;;;;;;18.02;14.20;;;;;;;6.94;98.83;102581.38;5094215;28;20024;-56
2021/12/14 00:20:51;;;;;;;18.50;13.50;;;;;;;6.95;99.20;102590.00;5093620;28;20024;-57
2021/12/14 00:25:53;;;;;;;17.65;13.60;;;;;;;6.91;99.35;102594.88;5094078;28;20028;-56
2021/12/14 00:28:21;;;;;;;18.52;13.85;;;;;;;6.92;99.30;102588.97;5093366;28;20035;-57
2021/12/14 00:30:48;;;;;;;19.42;13.90;;;;;;;6.91;99.72;102594.00;5094061;28;20066;-57
2021/12/14 00:33:22;;;;;;;19.10;14.27;;;;;;;6.90;99.47;102590.53;5094086;28;20032;-56
2021/12/14 00:35:48;;;;;;;20.92;14.48;;;;;;;6.89;99.75;102593.88;5093606;28;20101;-56
2021/12/14 00:38:16;;;;;;;23.58;14.15;;;;;;;6.90;99.84;102600.78;5094091;28;20047;-56
2021/12/14 00:40:46;;;;;;;20.48;14.93;;;;;;;6.89;99.90;102596.44;5093065;28;20032;-56
2021/12/14 00:43:12;;;;;;;22.33;15.55;;;;;;;6.90;100.00;102607.59;5093855;28;20025;-57
2021/12/14 00:45:40;;;;;;;22.75;15.80;;;;;;;6.89;100.00;102621.19;5093975;28;20047;-57
2021/12/14 00:48:08;;;;;;;19.85;15.90;;;;;;;6.86;100.00;102621.84;5092980;28;20471;-56
2021/12/14 00:50:35;;;;;;;23.10;15.65;;;;;;;6.88;100.00;102617.72;5093696;28;20035;-56
2021/12/14 00:53:01;;;;;;;18.25;15.02;;;;;;;6.88;100.00;102622.84;5093515;28;20028;-56
2021/12/14 00:55:35;;;;;;;21.90;16.27;;;;;;;6.87;100.00;102640.69;5092905;28;20506;-56
2021/12/14 00:58:01;;;;;;;21.20;15.55;;;;;;;6.87;100.00;102639.00;5093866;28;20095;-56
2021/12/14 01:00:31;;;;;;;21.75;15.70;;;;;;;6.86;100.00;102637.22;5093817;28;20425;-56
2021/12/14 01:02:57;;;;;;;20.58;16.40;;;;;;;6.86;100.00;102636.34;5092946;28;20024;-57
2021/12/14 01:05:29;;;;;;;21.58;16.20;;;;;;;6.85;100.00;102638.00;5093583;28;20020;-57
2021/12/14 01:07:55;;;;;;;21.13;15.88;;;;;;;6.86;100.00;102632.09;5093302;28;20399;-56
2021/12/14 01:10:24;;;;;;;23.08;16.40;;;;;;;6.85;100.00;102617.50;5092543;28;20035;-57
2021/12/14 01:12:54;;;;;;;20.35;15.57;;;;;;;6.83;100.00;102616.50;5093149;28;20455;-56
2021/12/14 01:15:31;;;;;;;20.50;16.10;;;;;;;6.84;100.00;102612.25;5093180;28;20052;-56
2021/12/14 01:20:59;;;;;;;21.00;16.00;;;;;;;6.83;100.00;102607.91;5093377;28;20165;-56
2021/12/14 01:23:30;;;;;;;22.75;17.02;;;;;;;6.84;100.00;102619.94;5092550;28;20035;-56
2021/12/14 01:26:03;;;;;;;22.73;16.75;;;;;;;6.80;100.00;102621.38;5093036;28;20020;-56
2021/12/14 01:28:29;;;;;;;21.73;16.98;;;;;;;6.81;100.00;102618.06;5093291;28;20036;-56
2021/12/14 01:31:21;;;;;;;23.77;16.45;;;;;;;6.80;100.00;102600.88;5092222;28;20031;-56
2021/12/14 01:34:06;;;;;;;21.20;16.63;;;;;;;6.79;100.00;102595.66;5093096;28;20107;-56
2021/12/14 01:41:39;;;;;;;23.48;16.83;;;;;;;6.74;100.00;102595.34;5092878;28;20082;-57
2021/12/14 01:44:05;;;;;;;23.48;16.33;;;;;;;6.74;100.00;102590.22;5092331;28;20027;-57
2021/12/14 01:46:44;;;;;;;22.33;15.70;;;;;;;6.76;100.00;102596.31;5093161;28;20031;-57
2021/12/14 01:49:13;;;;;;;20.42;16.02;;;;;;;6.73;100.00;102591.84;5092873;28;20020;-56
2021/12/14 01:51:41;;;;;;;21.27;15.75;;;;;;;6.72;100.00;102591.75;5092487;28;20030;-56
2021/12/14 01:54:09;;;;;;;20.52;16.20;;;;;;;6.71;100.00;102590.88;5092778;28;20024;-57
2021/12/14 01:56:35;;;;;;;23.45;16.08;;;;;;;6.71;100.00;102585.75;5092937;28;20117;-57
2021/12/14 01:59:08;;;;;;;23.17;15.90;;;;;;;6.69;100.00;102579.59;5092146;28;20418;-57
2021/12/14 02:01:46;;;;;;;21.20;15.88;;;;;;;6.70;100.00;102567.69;5092739;28;20121;-56
2021/12/14 02:04:18;;;;;;;20.55;14.43;;;;;;;6.69;100.00;102576.16;5092782;28;20024;-56
2021/12/14 02:06:51;;;;;;;18.88;14.43;;;;;;;6.68;100.00;102565.00;5096248;28;20031;-57
2021/12/14 02:09:17;;;;;;;21.27;14.80;;;;;;;6.68;100.00;102559.88;5097038;28;20036;-56
2021/12/14 02:11:48;;;;;;;19.55;15.32;;;;;;;6.67;100.00;102557.22;5096643;28;20134;-57
2021/12/14 02:14:13;;;;;;;20.60;13.50;;;;;;;6.68;100.00;102551.31;5096403;28;20031;-57
2021/12/14 02:16:40;;;;;;;21.90;13.18;;;;;;;6.65;100.00;102553.63;5096700;28;20028;-57
2021/12/14 02:19:10;;;;;;;16.63;13.10;;;;;;;6.65;100.00;102563.88;5096037;28;20024;-56
2021/12/14 02:21:37;;;;;;;19.83;13.77;;;;;;;6.63;100.00;102568.91;5096758;28;20028;-57
2021/12/14 02:24:06;;;;;;;18.33;12.95;;;;;;;6.64;100.00;102577.50;5096724;28;20032;-56
2021/12/14 02:26:34;;;;;;;19.63;13.02;;;;;;;6.63;100.00;102565.47;5095797;28;20036;-57
2021/12/14 02:29:04;;;;;;;17.50;12.13;;;;;;;6.62;100.00;102568.78;5096596;28;20420;-56
2021/12/14 02:31:34;;;;;;;17.67;12.27;;;;;;;6.61;100.00;102561.88;5096540;28;20099;-57
2021/12/14 02:34:04;;;;;;;17.08;12.10;;;;;;;6.59;100.00;102569.47;5095844;28;20032;-57
2021/12/14 02:36:34;;;;;;;15.85;11.60;;;;;;;6.59;100.00;102570.34;5096569;28;20020;-57
2021/12/14 02:39:08;;;;;;;16.55;12.18;;;;;;;6.58;100.00;102578.84;5096451;28;20081;-56
2021/12/14 02:41:44;;;;;;;18.63;11.23;;;;;;;6.59;100.00;102580.59;5095486;28;20032;-56
2021/12/14 02:44:09;;;;;;;16.58;11.73;;;;;;;6.59;99.71;102582.28;5096288;28;20052;-56
2021/12/14 02:46:42;;;;;;;15.65;11.18;;;;;;;6.57;99.92;102582.16;5095750;28;20062;-57
2021/12/14 02:49:13;;;;;;;15.82;10.52;;;;;;;6.56;99.81;102575.25;5095734;28;20058;-57
2021/12/14 02:51:51;;;;;;;18.02;11.35;;;;;;;6.57;99.75;102576.13;5095872;28;20032;-56
2021/12/14 02:54:22;;;;;;;15.40;10.45;;;;;;;6.54;99.79;102573.34;5095328;28;20025;-56
2021/12/14 02:56:51;;;;;;;15.90;10.82;;;;;;;6.54;99.55;102555.44;5096150;28;20071;-57
2021/12/14 02:59:24;;;;;;;14.30;10.63;;;;;;;6.51;99.52;102550.97;5096117;28;20036;-56
2021/12/14 03:01:53;;;;;;;14.55;11.13;;;;;;;6.51;99.57;102555.22;5095267;28;20063;-57
2021/12/14 03:04:19;;;;;;;15.27;10.20;;;;;;;6.50;99.75;102556.88;5096039;28;20031;-57
2021/12/14 03:06:49;;;;;;;16.10;11.05;;;;;;;6.49;99.44;102551.63;5095621;28;20028;-56
2021/12/14 03:09:40;;;;;;;14.95;9.98;;;;;;;6.49;99.58;102552.50;5095433;28;20020;-56
2021/12/14 03:12:14;;;;;;;15.77;10.60;;;;;;;6.47;99.38;102546.41;5095894;28;20537;-56
2021/12/14 03:14:46;;;;;;;18.10;11.07;;;;;;;6.46;99.22;102531.81;5095588;28;20032;-57
2021/12/14 03:17:11;;;;;;;14.55;9.60;;;;;;;6.43;99.35;102526.47;5095034;28;20052;-57
2021/12/14 03:19:37;;;;;;;14.25;9.90;;;;;;;6.44;99.47;102517.97;5095807;28;20545;-57
2021/12/14 03:22:22;;;;;;;15.68;9.75;;;;;;;6.45;99.21;102524.03;5095484;28;20042;-56
2021/12/14 03:24:48;;;;;;;15.52;9.90;;;;;;;6.42;99.35;102519.56;5095632;28;20030;-56
2021/12/14 03:27:13;;;;;;;16.05;9.88;;;;;;;6.42;99.40;102525.56;5095217;28;20044;-56
2021/12/14 03:29:39;;;;;;;16.83;9.95;;;;;;;6.41;98.95;102522.91;5094586;28;20020;-57
2021/12/14 03:32:04;;;;;;;18.75;10.80;;;;;;;6.39;99.52;102520.22;5095336;28;20024;-56
2021/12/14 03:34:34;;;;;;;16.15;10.18;;;;;;;6.37;99.20;102526.91;5095725;28;20028;-56
2021/12/14 03:37:02;;;;;;;15.88;10.27;;;;;;;6.38;99.35;102527.81;5094516;28;20464;-56
2021/12/14 03:39:31;;;;;;;15.73;10.13;;;;;;;6.37;99.21;102515.78;5095230;28;20067;-56
2021/12/14 03:42:02;;;;;;;16.90;10.60;;;;;;;6.36;99.51;102519.09;5094948;28;20492;-57
2021/12/14 03:44:32;;;;;;;20.02;11.25;;;;;;;6.35;99.63;102518.22;5094382;28;20053;-57
2021/12/14 03:47:15;;;;;;;19.52;10.88;;;;;;;6.36;99.54;102531.91;5095091;28;20072;-57
2021/12/14 03:49:47;;;;;;;18.42;10.93;;;;;;;6.34;99.74;102546.25;5094657;28;20023;-57
2021/12/14 03:52:16;;;;;;;18.23;11.23;;;;;;;6.34;99.84;102556.50;5094468;28;20115;-57
2021/12/14 03:54:42;;;;;;;18.60;11.35;;;;;;;6.34;99.39;102564.19;5094665;28;20411;-57
2021/12/14 03:57:07;;;;;;;16.42;11.48;;;;;;;6.33;99.69;102564.97;5094535;28;20479;-57
2021/12/14 03:59:33;;;;;;;18.33;12.38;;;;;;;6.32;99.52;102574.31;5094332;28;20077;-57
2021/12/14 04:02:03;;;;;;;18.70;11.85;;;;;;;6.32;100.00;102588.81;5094800;28;20036;-56
2021/12/14 04:04:33;;;;;;;20.55;12.38;;;;;;;6.32;99.80;102581.13;5094508;28;20398;-57
2021/12/14 04:07:01;;;;;;;19.92;12.98;;;;;;;6.32;100.00;102584.56;5094819;28;20490;-57
2021/12/14 04:09:30;;;;;;;;;;;;;;;6.40;99.71;102587.69;5095013;28;20024;-57
2021/12/14 04:11:57;;;;;;;21.60;12.80;;;;;;;6.31;99.88;102587.00;5094032;28;19916;-56
2021/12/14 04:14:22;;;;;;;21.40;13.40;;;;;;;6.30;99.78;102585.22;5094551;28;20114;-57
2021/12/14 04:16:50;;;;;;;21.10;13.77;;;;;;;6.29;100.00;102574.09;5094581;28;20218;-57
2021/12/14 04:19:21;;;;;;;23.83;15.30;;;;;;;6.28;100.00;102576.56;5093823;28;20115;-56
2021/12/14 04:21:47;;;;;;;21.60;14.60;;;;;;;6.28;100.00;102567.19;5094365;28;20036;-56
2021/12/14 04:24:17;;;;;;;21.90;14.18;;;;;;;6.28;100.00;102568.88;5094255;28;20020;-57
2021/12/14 04:26:45;;;;;;;23.25;15.38;;;;;;;6.28;100.00;102571.44;5093237;28;20131;-57
2021/12/14 04:29:12;;;;;;;22.15;14.82;;;;;;;6.27;100.00;102573.06;5093763;28;20102;-56
2021/12/14 04:31:39;;;;;;;24.27;16.48;;;;;;;6.28;100.00;102571.44;5094126;28;20028;-57
2021/12/14 04:34:05;;;;;;;24.42;15.82;;;;;;;6.28;100.00;102566.31;5093617;28;20026;-57
2021/12/14 04:36:31;;;;;;;25.23;16.25;;;;;;;6.25;100.00;102560.16;5094057;28;20024;-57
2021/12/14 04:39:02;;;;;;;25.63;17.10;;;;;;;6.26;100.00;102559.41;5093973;28;20028;-57
2021/12/14 04:52:36;;;;;;;29.45;19.58;;;;;;;6.24;100.00;102552.38;5094378;28;20034;-56
2021/12/14 04:55:08;;;;;;;27.77;19.17;;;;;;;6.23;100.00;102548.91;5093171;28;20046;-56
2021/12/14 04:57:46;;;;;;;27.67;18.73;;;;;;;6.24;100.00;102540.47;5093799;28;20081;-56
2021/12/14 05:00:31;;;;;;;29.73;18.05;;;;;;;6.26;100.00;102546.59;5093527;28;20024;-56
2021/12/14 05:02:59;;;;;;;25.40;18.05;;;;;;;6.24;100.00;102550.69;5093112;28;20028;-57
2021/12/14 05:05:31;;;;;;;27.15;18.92;;;;;;;6.25;100.00;102543.94;5093464;28;20063;-57
2021/12/14 05:10:41;;;;;;;30.50;20.63;;;;;;;6.23;100.00;102553.16;5093466;28;20417;-57
2021/12/14 05:13:07;;;;;;;31.15;20.58;;;;;;;6.24;100.00;102544.69;5093463;28;20087;-57
2021/12/14 05:15:36;;;;;;;33.63;20.50;;;;;;;6.22;100.00;102549.72;5092696;28;20020;-57
2021/12/14 05:18:07;;;;;;;31.15;18.90;;;;;;;6.23;100.00;102538.66;5093292;28;20024;-56
2021/12/14 05:20:32;;;;;;;31.05;19.27;;;;;;;6.23;100.00;102533.53;5093563;28;20035;-56
2021/12/14 05:22:58;;;;;;;31.08;20.05;;;;;;;6.22;100.00;102536.91;5092574;28;20032;-57
2021/12/14 05:25:27;;;;;;;30.23;20.23;;;;;;;6.22;100.00;102536.91;5093219;28;20126;-57
2021/12/14 05:27:58;;;;;;;30.48;19.65;;;;;;;6.20;100.00;102541.00;5092805;28;20102;-56
2021/12/14 05:30:36;;;;;;;32.72;20.67;;;;;;;6.19;100.00;102536.66;5092681;28;20495;-57
2021/12/14 05:33:10;;;;;;;34.40;20.83;;;;;;;6.20;100.00;102529.91;5092975;28;20468;-56
2021/12/14 05:35:37;;;;;;;36.25;21.05;;;;;;;6.18;100.00;102534.00;5093001;28;20210;-57
2021/12/14 05:38:05;;;;;;;34.28;20.48;;;;;;;6.19;100.00;102531.53;5092675;28;20028;-56
2021/12/14 05:43:07;;;;;;;34.40;21.17;;;;;;;6.18;100.00;102534.88;5092242;28;20118;-56
2021/12/14 05:45:36;;;;;;;33.97;20.75;;;;;;;6.18;100.00;102545.13;5093033;28;20479;-56
2021/12/14 05:48:02;;;;;;;32.20;20.80;;;;;;;6.18;100.00;102537.44;5092751;28;20390;-56
2021/12/14 05:50:42;;;;;;;33.60;20.80;;;;;;;6.19;100.00;102541.78;5092133;28;20467;-57
2021/12/14 05:53:16;;;;;;;33.38;20.58;;;;;;;6.18;100.00;102549.34;5092790;28;20521;-57
2021/12/14 05:55:41;;;;;;;34.15;21.83;;;;;;;6.17;100.00;102539.88;5092729;28;20056;-56
2021/12/14 05:58:16;;;;;;;37.88;21.45;;;;;;;6.18;100.00;102562.16;5092241;28;20051;-56
2021/12/14 06:00:45;;;;;;;37.13;22.73;;;;;;;6.17;100.00;102560.38;5092736;28;20034;-57
2021/12/14 06:03:38;;;;;;;39.45;22.23;;;;;;;6.19;100.00;102554.59;5092637;28;20024;-57
2021/12/14 06:06:03;;;;;;;35.95;22.00;;;;;;;6.17;100.00;102558.72;5092144;28;20024;-57
2021/12/14 06:08:33;;;;;;;35.40;22.85;;;;;;;6.16;100.00;102551.81;5092818;28;20487;-56
2021/12/14 06:11:00;;;;;;;37.30;23.15;;;;;;;6.14;100.00;102563.59;5092558;28;20020;-56
2021/12/14 06:13:41;;;;;;;38.83;22.80;;;;;;;6.18;100.00;102569.84;5092160;28;20081;-57
2021/12/14 06:16:08;;;;;;;36.92;23.30;;;;;;;6.15;100.00;102569.63;5092792;28;20028;-56
2021/12/14 06:18:34;;;;;;;37.28;23.80;;;;;;;6.14;100.00;102562.72;5091771;28;20031;-57
2021/12/14 06:21:00;;;;;;;37.25;22.55;;;;;;;6.14;100.00;102573.81;5092781;28;20035;-57
2021/12/14 06:23:28;;;;;;;42.17;24.65;;;;;;;6.16;100.00;102576.50;5092731;28;20028;-57
2021/12/14 06:25:54;;;;;;;41.90;24.85;;;;;;;6.17;100.00;102583.41;5091683;28;20028;-57
2021/12/14 06:28:27;;;;;;;38.10;23.90;;;;;;;6.13;100.00;102572.03;5092548;28;20103;-57
2021/12/14 06:30:53;;;;;;;38.50;24.15;;;;;;;6.13;100.00;102572.03;5092253;28;20474;-56
2021/12/14 06:33:19;;;;;;;40.45;24.80;;;;;;;6.13;100.00;102572.03;5092222;28;20024;-56
2021/12/14 06:35:49;;;;;;;39.90;23.60;;;;;;;6.12;100.00;102577.97;5092328;28;20102;-56
2021/12/14 06:38:28;;;;;;;40.95;24.20;;;;;;;6.14;100.00;102584.06;5092407;28;20031;-56
2021/12/14 06:40:58;;;;;;;44.30;25.30;;;;;;;6.14;100.00;102584.06;5091827;28;20028;-57
2021/12/14 06:43:47;;;;;;;45.05;26.02;;;;;;;6.13;100.00;102576.28;5092364;28;20024;-56
2021/12/14 06:46:25;;;;;;;41.75;25.58;;;;;;;6.16;100.00;102582.53;5092252;28;20036;-57
2021/12/14 06:48:51;;;;;;;43.88;25.52;;;;;;;6.14;100.00;102573.81;5092356;28;20024;-56
2021/12/14 06:51:22;;;;;;;44.92;26.45;;;;;;;6.13;100.00;102589.97;5093646;28;20024;-57
2021/12/14 06:53:55;;;;;;;49.42;29.10;;;;;;;6.15;100.00;102595.22;5095245;28;20077;-56
2021/12/14 06:56:24;;;;;;;48.50;28.48;;;;;;;6.13;100.00;102600.19;5095951;28;20534;-57
2021/12/14 06:59:11;;;;;;;54.40;29.30;;;;;;;6.13;100.00;102602.75;5096109;28;20024;-56
2021/12/14 07:01:40;;;;;;;;;;;;;;;6.21;100.00;102599.13;5095507;28;20402;-57
2021/12/14 07:04:09;;;;;;;45.17;27.58;;;;;;;6.13;100.00;102601.88;5095864;28;20043;-56
2021/12/14 07:06:38;;;;;;;48.50;28.50;;;;;;;6.13;100.00;102605.31;5095338;28;20101;-56
2021/12/14 07:09:12;;;;;;;48.67;27.58;;;;;;;6.12;100.00;102606.13;5095356;28;20030;-57
2021/12/14 07:11:41;;;;;;;50.88;28.00;;;;;;;6.12;100.00;102606.13;5095720;28;20032;-56
2021/12/14 07:14:33;;;;;;;49.90;28.10;;;;;;;6.14;100.00;102614.78;5095477;28;20024;-57
2021/12/14 07:17:09;;;;;;;46.88;28.13;;;;;;;6.12;100.00;102616.34;5095373;28;20555;-57
2021/12/14 07:20:04;;;;;;;52.60;28.92;;;;;;;6.16;100.00;102620.94;5095606;28;20128;-56
2021/12/14 07:22:40;;;;;;;51.28;29.00;;;;;;;6.15;100.00;102629.38;5087521;28;20048;-57
2021/12/14 07:25:12;;;;;;;50.33;28.52;;;;;;;6.13;100.00;102630.91;5095374;28;20028;-56
2021/12/14 07:27:48;;;;;;;53.13;29.55;;;;;;;6.15;100.00;102631.94;5094924;28;20072;-57
2021/12/14 07:30:33;;;;;;;51.22;28.92;;;;;;;6.14;100.00;102640.38;5094907;28;20035;-57
2021/12/14 07:33:14;;;;;;;53.63;29.27;;;;;;;6.14;100.00;102637.81;5095344;28;20111;-56
2021/12/14 07:36:00;;;;;;;49.33;28.20;;;;;;;6.17;100.00;102640.66;5094293;28;20035;-57
2021/12/14 07:38:47;;;;;;;50.72;29.95;;;;;;;6.17;100.00;102650.88;5095053;28;20483;-57
2021/12/14 07:41:25;;;;;;;54.25;29.63;;;;;;;6.16;100.00;102643.06;5094823;28;20024;-56
2021/12/14 07:44:04;;;;;;;55.03;30.27;;;;;;;6.16;100.00;102643.97;5094154;28;20479;-57
2021/12/14 07:46:29;;;;;;;53.92;30.95;;;;;;;6.17;100.00;102643.19;5095119;28;20032;-56
2021/12/14 07:49:06;;;;;;;54.90;31.23;;;;;;;6.17;100.00;102653.44;5093867;28;20058;-57
2021/12/14 07:51:34;;;;;;;52.10;30.15;;;;;;;6.18;100.00;102657.75;5094328;28;20277;-57
2021/12/14 07:54:14;;;;;;;57.75;31.85;;;;;;;6.19;100.00;102651.88;5094752;28;20040;-57
2021/12/14 07:56:59;;;;;;;54.45;31.27;;;;;;;6.21;100.00;102662.22;5093846;28;20532;-57
2021/12/14 07:59:30;;;;;;;54.47;31.63;;;;;;;6.21;100.00;102669.91;5094873;28;20032;-57
2021/12/14 08:02:16;;;;;;;54.28;30.70;;;;;;;6.23;100.00;102682.06;5094181;28;20107;-57
2021/12/14 08:04:47;;;;;;;55.75;32.17;;;;;;;6.22;100.00;102664.94;5093696;28;20035;-56
2021/12/14 08:07:34;;;;;;;54.58;30.83;;;;;;;6.24;100.00;102670.16;5094567;28;20472;-57
2021/12/14 08:10:14;;;;;;;55.63;31.52;;;;;;;6.23;100.00;102682.06;5094557;28;20039;-57
2021/12/14 08:12:55;;;;;;;54.40;30.90;;;;;;;6.26;100.00;102671.16;5094026;28;20020;-57
2021/12/14 08:15:41;;;;;;;61.88;32.65;;;;;;;6.24;100.00;102678.72;5094327;28;20036;-57
2021/12/14 08:18:14;;;;;;;58.83;32.85;;;;;;;6.25;100.00;102675.41;5093840;28;20032;-56
2021/12/14 08:20:57;;;;;;;58.00;32.90;;;;;;;6.27;100.00;102675.50;5094284;28;20031;-56
2021/12/14 08:23:33;;;;;;;62.53;34.42;;;;;;;6.27;100.00;102675.50;5094059;28;20020;-56
2021/12/14 08:26:12;;;;;;;56.25;32.20;;;;;;;6.26;100.00;102677.19;5093902;28;20034;-56
2021/12/14 08:28:48;;;;;;;59.15;33.95;;;;;;;6.29;100.00;102680.72;5094037;28;20024;-57
2021/12/14 08:31:14;;;;;;;57.15;32.70;;;;;;;6.30;100.00;102677.41;5093872;28;20016;-56
2021/12/14 08:33:39;;;;;;;62.08;34.22;;;;;;;6.30;100.00;102673.19;5093396;28;20031;-56
2021/12/14 08:36:09;;;;;;;64.35;34.97;;;;;;;6.32;100.00;102678.44;5093905;28;20028;-57
2021/12/14 08:38:36;;;;;;;61.55;35.03;;;;;;;6.32;100.00;102679.31;5093895;28;20028;-56
2021/12/14 08:41:16;;;;;;;63.47;36.28;;;;;;;6.34;100.00;102679.41;5093561;28;20080;-57
2021/12/14 08:43:48;;;;;;;62.88;33.83;;;;;;;6.35;100.00;102681.22;5093709;28;20498;-57
2021/12/14 08:46:19;;;;;;;64.45;34.20;;;;;;;6.36;100.00;102683.00;5093182;28;20024;-56
2021/12/14 08:48:50;;;;;;;63.85;34.80;;;;;;;6.37;100.00;102672.88;5093874;28;20027;-56
2021/12/14 08:51:23;;;;;;;64.32;34.13;;;;;;;6.39;100.00;102680.66;5093485;28;20383;-56
2021/12/14 08:54:15;;;;;;;61.20;33.15;;;;;;;6.43;100.00;102687.84;5093190;28;20059;-56
2021/12/14 08:56:55;;;;;;;66.28;35.55;;;;;;;6.43;100.00;102691.28;5093579;28;20383;-57
2021/12/14 08:59:21;;;;;;;60.63;34.45;;;;;;;6.46;100.00;102689.72;5093647;28;20031;-57
2021/12/14 09:01:47;;;;;;;62.78;36.63;;;;;;;6.47;100.00;102687.28;5093078;28;20028;-57
2021/12/14 09:04:18;;;;;;;62.88;35.90;;;;;;;6.48;100.00;102691.63;5093729;28;20032;-57
2021/12/14 09:06:47;;;;;;;61.50;34.50;;;;;;;6.48;100.00;102689.06;5093651;28;20020;-57
2021/12/14 09:09:15;;;;;;;59.65;34.05;;;;;;;6.52;100.00;102690.16;5092877;28;20023;-57
2021/12/14 09:11:44;;;;;;;60.55;33.50;;;;;;;6.54;100.00;102689.50;5093291;28;20600;-57
2021/12/14 09:14:14;;;;;;;65.75;35.17;;;;;;;6.57;100.00;102689.75;5092542;28;20032;-57
2021/12/14 09:16:42;;;;;;;62.90;35.80;;;;;;;6.62;100.00;102691.78;5093316;28;20463;-57
2021/12/14 09:19:14;;;;;;;64.00;35.85;;;;;;;6.64;100.00;102700.47;5093177;28;20032;-57
2021/12/14 09:21:45;;;;;;;59.72;35.20;;;;;;;6.68;100.00;102697.38;5092423;28;20044;-58
2021/12/14 09:24:17;;;;;;;61.38;34.08;;;;;;;6.75;100.00;102694.47;5093422;28;20028;-57
2021/12/14 09:26:47;;;;;;;62.72;34.80;;;;;;;6.82;100.00;102701.84;5092710;28;20189;-57
2021/12/14 09:29:15;;;;;;;63.63;35.53;;;;;;;6.86;99.76;102700.41;5092627;28;20020;-57
2021/12/14 09:31:44;;;;;;;57.15;33.88;;;;;;;6.91;99.48;102696.53;5092987;28;20024;-57
2021/12/14 09:34:11;;;;;;;63.20;35.25;;;;;;;6.96;99.68;102700.31;5092804;28;20093;-57
2021/12/14 09:36:39;;;;;;;63.50;34.50;;;;;;;7.01;99.33;102698.06;5092645;28;20020;-57
2021/12/14 09:39:21;;;;;;;62.58;35.90;;;;;;;7.03;99.34;102706.78;5092848;28;20470;-57
2021/12/14 09:41:53;;;;;;;63.38;36.70;;;;;;;6.99;99.18;102699.66;5092654;28;20020;-57
2021/12/14 09:44:21;;;;;;;61.83;34.92;;;;;;;7.00;99.06;102696.31;5092454;28;20039;-57
2021/12/14 09:46:47;;;;;;;61.45;36.60;;;;;;;6.97;98.95;102690.94;5092720;28;20024;-57
2021/12/14 09:49:15;;;;;;;63.33;36.65;;;;;;;6.99;99.22;102689.41;5091969;28;20418;-57
2021/12/14 09:51:48;;;;;;;59.70;35.10;;;;;;;7.00;99.09;102686.06;5092876;28;20024;-57
2021/12/14 09:54:18;;;;;;;62.40;36.00;;;;;;;7.00;98.79;102680.94;5092798;28;20032;-57
2021/12/14 09:56:50;;;;;;;62.30;35.50;;;;;;;7.05;98.94;102675.34;5092058;28;20046;-58
2021/12/14 09:59:16;;;;;;;66.47;37.38;;;;;;;7.07;98.87;102672.91;5092657;28;20063;-57
2021/12/14 10:01:45;;;;;;;65.35;35.17;;;;;;;7.12;98.80;102671.56;5092281;28;20042;-57
2021/12/14 10:04:15;;;;;;;63.50;36.97;;;;;;;7.14;98.50;102682.84;5092283;28;20111;-57
2021/12/14 10:06:42;;;;;;;62.58;35.75;;;;;;;7.15;98.46;102684.59;5092638;28;20077;-57
2021/12/14 10:09:20;;;;;;;63.47;35.78;;;;;;;7.21;98.37;102682.47;5092351;28;20468;-57
2021/12/14 10:14:23;;;;;;;62.45;35.53;;;;;;;7.31;98.16;102686.63;5092846;28;20036;-57
2021/12/14 10:16:49;;;;;;;62.55;37.28;;;;;;;7.36;97.75;102692.06;5092328;28;20024;-57
2021/12/14 10:19:19;;;;;;;60.13;35.72;;;;;;;7.40;97.65;102688.97;5091943;28;20452;-57
2021/12/14 10:21:55;;;;;;;60.67;34.75;;;;;;;7.49;97.65;102683.59;5092361;28;20036;-57
2021/12/14 10:24:22;;;;;;;61.47;36.15;;;;;;;7.52;97.47;102687.25;5091700;28;20149;-57
2021/12/14 10:26:55;;;;;;;65.50;37.72;;;;;;;7.55;97.37;102690.06;5094452;28;20048;-57
2021/12/14 10:29:23;;;;;;;62.35;35.80;;;;;;;7.57;97.00;102687.59;5096619;28;20043;-57
2021/12/14 10:31:59;;;;;;;63.13;35.08;;;;;;;7.59;96.96;102688.59;5095791;28;20111;-57
2021/12/14 10:34:26;;;;;;;62.75;38.15;;;;;;;7.60;96.85;102687.81;5096335;28;20024;-58
2021/12/14 10:37:03;;;;;;;63.13;36.33;;;;;;;7.63;96.93;102699.97;5095767;28;20456;-58
2021/12/14 10:44:56;;;;;;;64.32;37.63;;;;;;;7.66;96.53;102700.22;5096136;28;20510;-57
2021/12/14 10:47:25;;;;;;;66.95;37.05;;;;;;;7.67;96.82;102699.41;5095422;28;20490;-57
2021/12/14 10:49:52;;;;;;;60.85;35.30;;;;;;;7.69;96.68;102697.84;5096192;28;20165;-57
2021/12/14 10:52:21;;;;;;;61.08;36.42;;;;;;;7.69;96.45;102692.72;5095858;28;20028;-57
2021/12/14 10:54:52;;;;;;;65.10;37.65;;;;;;;7.68;96.57;102693.50;5095338;28;20036;-57
2021/12/14 10:57:22;;;;;;;65.20;36.72;;;;;;;7.68;96.54;102690.94;5096035;28;20032;-57
2021/12/14 10:59:52;;;;;;;66.38;36.50;;;;;;;7.69;96.26;102690.16;5094898;28;20566;-58
2021/12/14 11:02:20;;;;;;;61.33;36.17;;;;;;;7.71;96.99;102688.59;5095743;28;20430;-57
2021/12/14 11:04:54;;;;;;;70.30;38.05;;;;;;;7.73;96.40;102681.88;5095292;28;20529;-58
2021/12/14 11:07:34;;;;;;;64.00;36.40;;;;;;;7.78;96.89;102680.53;5095392;28;20073;-57
2021/12/14 11:10:10;;;;;;;60.20;34.60;;;;;;;7.83;96.80;102678.31;5095745;28;20035;-58
2021/12/14 11:12:39;;;;;;;62.08;36.50;;;;;;;7.87;96.65;102681.16;5095710;28;20044;-57
2021/12/14 11:15:09;;;;;;;65.15;37.53;;;;;;;7.88;96.05;102684.66;5095072;28;20069;-56
2021/12/14 11:20:52;;;;;;;68.63;37.80;;;;;;;7.95;96.36;102673.13;5095552;28;20588;-56
2021/12/14 11:23:22;;;;;;;60.55;36.33;;;;;;;7.99;95.79;102667.41;5095473;28;20040;-56
2021/12/14 11:25:51;;;;;;;68.55;37.58;;;;;;;8.05;95.99;102667.84;5095208;28;20066;-57
2021/12/14 11:28:23;;;;;;;60.28;35.80;;;;;;;8.12;95.70;102657.22;5094577;28;20052;-56
2021/12/14 11:30:54;;;;;;;67.45;37.20;;;;;;;8.18;95.46;102662.75;5095343;28;20073;-57
2021/12/14 11:33:26;;;;;;;65.22;38.10;;;;;;;8.18;94.74;102651.59;5095225;28;20071;-56
2021/12/14 11:36:03;;;;;;;67.95;38.13;;;;;;;8.21;94.96;102644.09;5094590;28;20472;-56
2021/12/14 11:39:00;;;;;;;69.43;39.10;;;;;;;8.28;95.10;102653.13;5095253;28;20024;-56
2021/12/14 11:41:31;;;;;;;;;;;;;;;8.37;95.53;102653.75;5050204;28;20040;-56
2021/12/14 11:44:08;;;;;;;70.78;38.17;;;;;;;8.27;94.25;102653.91;5094243;28;19919;-57
2021/12/14 11:46:51;;;;;;;70.78;39.65;;;;;;;8.28;94.85;102648.00;5095049;28;20095;-56
2021/12/14 11:49:18;;;;;;;67.90;38.45;;;;;;;8.29;94.59;102652.31;5094438;28;20031;-56
2021/12/14 11:51:44;;;;;;;69.07;39.75;;;;;;;8.28;94.63;102645.44;5094686;28;20556;-56
2021/12/14 11:54:10;;;;;;;71.22;40.63;;;;;;;8.30;94.90;102656.69;5094578;28;20506;-56
2021/12/14 11:56:36;;;;;;;71.68;38.83;;;;;;;8.29;94.78;102654.88;5094316;28;20044;-57
2021/12/14 11:59:05;;;;;;;74.50;40.70;;;;;;;8.27;94.98;102648.78;5094866;28;20384;-56
2021/12/14 12:01:39;;;;;;;70.03;39.80;;;;;;;8.23;94.97;102656.25;5094508;28;20035;-56
2021/12/14 12:04:17;;;;;;;73.15;40.05;;;;;;;8.22;95.21;102654.50;5094142;28;20020;-56
2021/12/14 12:09:37;;;;;;;73.22;41.00;;;;;;;8.23;95.32;102656.25;5094321;28;20380;-56
2021/12/14 12:12:08;;;;;;;74.30;41.67;;;;;;;8.24;95.49;102655.47;5093945;28;20019;-56
2021/12/14 12:14:38;;;;;;;78.13;41.55;;;;;;;8.23;95.33;102657.94;5094392;28;20051;-57
2021/12/14 12:17:19;;;;;;;76.15;43.40;;;;;;;8.22;95.43;102662.22;5093434;28;20028;-57